sensor_id;sensor_type;location;lat;lon;timestamp;P1;durP1;ratioP1;P2;durP2;ratioP2
18568;SDS011;14780;48.316;-1.050;2023-05-10T00:00:48;4.75;;;1.67;;
18568;SDS011;14780;48.316;-1.050;2023-05-10T00:03:32;2.08;;;1.30;;
18568;SDS011;14780;48.316;-1.050;2023-05-10T00:06:17;4.03;;;1.80;;
18568;SDS011;14780;48.316;-1.050;2023-05-10T00:09:01;3.50;;;1.65;;
18568;SDS011;14780;48.316;-1.050;2023-05-10T00:11:47;2.25;;;1.60;;
18568;SDS011;14780;48.316;-1.050;2023-05-10T00:14:31;3.00;;;1.48;;
18568;SDS011;14780;48.316;-1.050;2023-05-10T00:17:16;2.45;;;1.40;;
18568;SDS011;14780;48.316;-1.050;2023-05-10T00:20:00;4.72;;;1.88;;
18568;SDS011;14780;48.316;-1.050;2023-05-10T00:22:45;2.95;;;1.85;;
18568;SDS011;14780;48.316;-1.050;2023-05-10T00:25:30;3.85;;;1.90;;
18568;SDS011;14780;48.316;-1.050;2023-05-10T00:28:14;3.50;;;1.63;;
18568;SDS011;14780;48.316;-1.050;2023-05-10T00:30:59;4.07;;;1.70;;
18568;SDS011;14780;48.316;-1.050;2023-05-10T00:33:43;3.72;;;1.75;;
18568;SDS011;14780;48.316;-1.050;2023-05-10T00:36:28;2.17;;;1.58;;
18568;SDS011;14780;48.316;-1.050;2023-05-10T00:39:15;2.03;;;1.40;;
18568;SDS011;14780;48.316;-1.050;2023-05-10T00:41:59;6.93;;;1.90;;
18568;SDS011;14780;48.316;-1.050;2023-05-10T00:44:44;3.97;;;2.40;;
18568;SDS011;14780;48.316;-1.050;2023-05-10T00:47:30;2.92;;;1.50;;
18568;SDS011;14780;48.316;-1.050;2023-05-10T00:50:16;4.35;;;1.80;;
18568;SDS011;14780;48.316;-1.050;2023-05-10T00:53:01;3.70;;;1.88;;
18568;SDS011;14780;48.316;-1.050;2023-05-10T00:55:46;3.13;;;1.90;;
18568;SDS011;14780;48.316;-1.050;2023-05-10T00:58:32;2.30;;;1.75;;
18568;SDS011;14780;48.316;-1.050;2023-05-10T01:01:16;3.67;;;1.77;;
18568;SDS011;14780;48.316;-1.050;2023-05-10T01:04:02;3.45;;;2.10;;
18568;SDS011;14780;48.316;-1.050;2023-05-10T01:06:48;4.03;;;1.92;;
18568;SDS011;14780;48.316;-1.050;2023-05-10T01:09:32;6.95;;;2.20;;
18568;SDS011;14780;48.316;-1.050;2023-05-10T01:12:18;2.28;;;1.40;;
18568;SDS011;14780;48.316;-1.050;2023-05-10T01:15:03;4.25;;;2.03;;
18568;SDS011;14780;48.316;-1.050;2023-05-10T01:17:51;2.10;;;1.38;;
18568;SDS011;14780;48.316;-1.050;2023-05-10T01:20:39;3.83;;;1.80;;
18568;SDS011;14780;48.316;-1.050;2023-05-10T01:23:36;3.63;;;1.70;;
18568;SDS011;14780;48.316;-1.050;2023-05-10T01:26:33;6.35;;;2.03;;
18568;SDS011;14780;48.316;-1.050;2023-05-10T01:35:43;3.33;;;1.63;;
18568;SDS011;14780;48.316;-1.050;2023-05-10T01:39:43;3.97;;;2.03;;
18568;SDS011;14780;48.316;-1.050;2023-05-10T01:42:19;3.72;;;1.80;;
18568;SDS011;14780;48.316;-1.050;2023-05-10T01:48:13;4.85;;;2.13;;
18568;SDS011;14780;48.316;-1.050;2023-05-10T01:50:59;2.75;;;1.55;;
18568;SDS011;14780;48.316;-1.050;2023-05-10T01:53:44;4.20;;;1.98;;
18568;SDS011;14780;48.316;-1.050;2023-05-10T01:56:32;4.15;;;2.35;;
18568;SDS011;14780;48.316;-1.050;2023-05-10T01:59:19;3.95;;;2.22;;
18568;SDS011;14780;48.316;-1.050;2023-05-10T02:02:05;4.63;;;2.08;;
18568;SDS011;14780;48.316;-1.050;2023-05-10T02:04:51;7.53;;;2.20;;
18568;SDS011;14780;48.316;-1.050;2023-05-10T02:07:38;7.47;;;2.88;;
18568;SDS011;14780;48.316;-1.050;2023-05-10T02:10:24;4.88;;;2.20;;
18568;SDS011;14780;48.316;-1.050;2023-05-10T02:13:10;7.68;;;2.40;;
18568;SDS011;14780;48.316;-1.050;2023-05-10T02:15:57;7.30;;;2.17;;
18568;SDS011;14780;48.316;-1.050;2023-05-10T02:18:45;4.43;;;2.33;;
18568;SDS011;14780;48.316;-1.050;2023-05-10T02:21:32;4.40;;;2.22;;
18568;SDS011;14780;48.316;-1.050;2023-05-10T02:24:18;5.00;;;2.22;;
18568;SDS011;14780;48.316;-1.050;2023-05-10T02:27:04;4.57;;;1.77;;
18568;SDS011;14780;48.316;-1.050;2023-05-10T02:29:51;4.93;;;2.13;;
18568;SDS011;14780;48.316;-1.050;2023-05-10T02:32:36;5.95;;;2.55;;
18568;SDS011;14780;48.316;-1.050;2023-05-10T02:35:22;5.95;;;2.45;;
18568;SDS011;14780;48.316;-1.050;2023-05-10T02:38:09;7.65;;;2.67;;
18568;SDS011;14780;48.316;-1.050;2023-05-10T02:40:55;5.07;;;2.70;;
18568;SDS011;14780;48.316;-1.050;2023-05-10T02:43:41;4.03;;;1.80;;
18568;SDS011;14780;48.316;-1.050;2023-05-10T02:46:26;7.60;;;2.38;;
18568;SDS011;14780;48.316;-1.050;2023-05-10T02:49:11;7.85;;;2.45;;
18568;SDS011;14780;48.316;-1.050;2023-05-10T02:51:58;9.18;;;2.83;;
18568;SDS011;14780;48.316;-1.050;2023-05-10T02:54:49;7.28;;;2.72;;
18568;SDS011;14780;48.316;-1.050;2023-05-10T02:57:38;10.52;;;2.60;;
18568;SDS011;14780;48.316;-1.050;2023-05-10T03:00:29;4.50;;;2.00;;
18568;SDS011;14780;48.316;-1.050;2023-05-10T03:03:14;5.78;;;2.22;;
18568;SDS011;14780;48.316;-1.050;2023-05-10T03:05:59;5.15;;;2.50;;
18568;SDS011;14780;48.316;-1.050;2023-05-10T03:08:44;4.50;;;2.05;;
18568;SDS011;14780;48.316;-1.050;2023-05-10T03:18:05;6.78;;;2.03;;
18568;SDS011;14780;48.316;-1.050;2023-05-10T03:21:02;10.40;;;2.00;;
18568;SDS011;14780;48.316;-1.050;2023-05-10T03:23:58;6.68;;;2.60;;
18568;SDS011;14780;48.316;-1.050;2023-05-10T03:26:49;3.03;;;1.70;;
18568;SDS011;14780;48.316;-1.050;2023-05-10T03:29:39;6.55;;;2.22;;
18568;SDS011;14780;48.316;-1.050;2023-05-10T03:32:25;6.93;;;2.47;;
18568;SDS011;14780;48.316;-1.050;2023-05-10T03:35:12;6.05;;;2.40;;
18568;SDS011;14780;48.316;-1.050;2023-05-10T03:37:57;7.22;;;2.30;;
18568;SDS011;14780;48.316;-1.050;2023-05-10T03:40:42;4.82;;;2.28;;
18568;SDS011;14780;48.316;-1.050;2023-05-10T03:43:26;5.82;;;2.38;;
18568;SDS011;14780;48.316;-1.050;2023-05-10T03:46:11;6.07;;;2.58;;
18568;SDS011;14780;48.316;-1.050;2023-05-10T03:48:55;3.58;;;1.70;;
18568;SDS011;14780;48.316;-1.050;2023-05-10T03:51:40;5.93;;;2.40;;
18568;SDS011;14780;48.316;-1.050;2023-05-10T03:54:25;4.57;;;2.13;;
18568;SDS011;14780;48.316;-1.050;2023-05-10T03:57:09;4.53;;;1.98;;
18568;SDS011;14780;48.316;-1.050;2023-05-10T03:59:54;6.18;;;2.50;;
18568;SDS011;14780;48.316;-1.050;2023-05-10T04:02:38;7.38;;;2.67;;
18568;SDS011;14780;48.316;-1.050;2023-05-10T04:05:23;7.35;;;2.83;;
18568;SDS011;14780;48.316;-1.050;2023-05-10T04:08:08;6.38;;;2.72;;
18568;SDS011;14780;48.316;-1.050;2023-05-10T04:10:53;8.13;;;2.38;;
18568;SDS011;14780;48.316;-1.050;2023-05-10T04:13:38;3.95;;;2.00;;
18568;SDS011;14780;48.316;-1.050;2023-05-10T04:16:23;5.13;;;2.33;;
18568;SDS011;14780;48.316;-1.050;2023-05-10T04:19:07;5.25;;;2.28;;
18568;SDS011;14780;48.316;-1.050;2023-05-10T04:21:52;6.53;;;2.40;;
18568;SDS011;14780;48.316;-1.050;2023-05-10T04:24:37;4.82;;;1.80;;
18568;SDS011;14780;48.316;-1.050;2023-05-10T04:27:21;5.55;;;2.25;;
18568;SDS011;14780;48.316;-1.050;2023-05-10T04:30:06;5.85;;;2.40;;
18568;SDS011;14780;48.316;-1.050;2023-05-10T04:32:51;6.95;;;2.60;;
18568;SDS011;14780;48.316;-1.050;2023-05-10T04:35:36;3.95;;;2.00;;
18568;SDS011;14780;48.316;-1.050;2023-05-10T04:38:21;4.28;;;1.85;;
18568;SDS011;14780;48.316;-1.050;2023-05-10T04:41:06;3.50;;;1.77;;
18568;SDS011;14780;48.316;-1.050;2023-05-10T04:43:52;4.10;;;1.95;;
18568;SDS011;14780;48.316;-1.050;2023-05-10T04:46:36;4.60;;;2.58;;
18568;SDS011;14780;48.316;-1.050;2023-05-10T04:49:21;3.58;;;2.08;;
18568;SDS011;14780;48.316;-1.050;2023-05-10T04:52:06;2.65;;;1.48;;
18568;SDS011;14780;48.316;-1.050;2023-05-10T04:54:50;5.85;;;2.05;;
18568;SDS011;14780;48.316;-1.050;2023-05-10T04:57:35;4.90;;;2.13;;
18568;SDS011;14780;48.316;-1.050;2023-05-10T05:00:20;5.88;;;2.60;;
18568;SDS011;14780;48.316;-1.050;2023-05-10T05:03:05;5.53;;;2.55;;
18568;SDS011;14780;48.316;-1.050;2023-05-10T05:05:49;6.30;;;2.33;;
18568;SDS011;14780;48.316;-1.050;2023-05-10T05:08:34;5.45;;;1.92;;
18568;SDS011;14780;48.316;-1.050;2023-05-10T05:11:19;4.00;;;2.30;;
18568;SDS011;14780;48.316;-1.050;2023-05-10T05:14:04;5.22;;;2.28;;
18568;SDS011;14780;48.316;-1.050;2023-05-10T05:16:49;4.75;;;1.95;;
18568;SDS011;14780;48.316;-1.050;2023-05-10T05:19:34;5.53;;;1.92;;
18568;SDS011;14780;48.316;-1.050;2023-05-10T05:22:19;7.47;;;2.53;;
18568;SDS011;14780;48.316;-1.050;2023-05-10T05:25:10;5.65;;;2.05;;
18568;SDS011;14780;48.316;-1.050;2023-05-10T05:27:55;5.20;;;2.33;;
18568;SDS011;14780;48.316;-1.050;2023-05-10T05:30:40;3.72;;;1.77;;
18568;SDS011;14780;48.316;-1.050;2023-05-10T05:33:25;5.38;;;2.13;;
18568;SDS011;14780;48.316;-1.050;2023-05-10T05:36:10;7.53;;;2.63;;
18568;SDS011;14780;48.316;-1.050;2023-05-10T05:38:55;5.05;;;2.50;;
18568;SDS011;14780;48.316;-1.050;2023-05-10T05:41:40;5.53;;;2.33;;
18568;SDS011;14780;48.316;-1.050;2023-05-10T05:44:25;4.22;;;2.00;;
18568;SDS011;14780;48.316;-1.050;2023-05-10T05:47:12;5.38;;;2.30;;
18568;SDS011;14780;48.316;-1.050;2023-05-10T05:49:57;4.40;;;2.10;;
18568;SDS011;14780;48.316;-1.050;2023-05-10T05:52:41;4.55;;;2.03;;
18568;SDS011;14780;48.316;-1.050;2023-05-10T05:55:26;5.32;;;1.92;;
18568;SDS011;14780;48.316;-1.050;2023-05-10T05:58:11;3.78;;;2.20;;
18568;SDS011;14780;48.316;-1.050;2023-05-10T06:00:56;4.53;;;1.90;;
18568;SDS011;14780;48.316;-1.050;2023-05-10T06:03:41;3.40;;;1.70;;
18568;SDS011;14780;48.316;-1.050;2023-05-10T06:06:25;5.90;;;2.38;;
18568;SDS011;14780;48.316;-1.050;2023-05-10T06:09:11;4.63;;;2.22;;
18568;SDS011;14780;48.316;-1.050;2023-05-10T06:11:56;5.90;;;2.47;;
18568;SDS011;14780;48.316;-1.050;2023-05-10T06:14:41;4.45;;;2.05;;
18568;SDS011;14780;48.316;-1.050;2023-05-10T06:17:26;3.42;;;2.10;;
18568;SDS011;14780;48.316;-1.050;2023-05-10T06:20:11;5.95;;;1.83;;
18568;SDS011;14780;48.316;-1.050;2023-05-10T06:22:57;6.18;;;2.08;;
18568;SDS011;14780;48.316;-1.050;2023-05-10T06:25:41;5.60;;;2.42;;
18568;SDS011;14780;48.316;-1.050;2023-05-10T06:28:26;4.00;;;1.80;;
18568;SDS011;14780;48.316;-1.050;2023-05-10T06:31:10;5.95;;;2.53;;
18568;SDS011;14780;48.316;-1.050;2023-05-10T06:33:56;4.28;;;2.22;;
18568;SDS011;14780;48.316;-1.050;2023-05-10T06:36:41;3.33;;;1.70;;
18568;SDS011;14780;48.316;-1.050;2023-05-10T06:39:26;3.50;;;1.98;;
18568;SDS011;14780;48.316;-1.050;2023-05-10T06:42:11;4.05;;;2.15;;
18568;SDS011;14780;48.316;-1.050;2023-05-10T06:44:56;5.85;;;2.03;;
18568;SDS011;14780;48.316;-1.050;2023-05-10T06:47:40;6.93;;;1.90;;
18568;SDS011;14780;48.316;-1.050;2023-05-10T06:50:25;5.60;;;2.28;;
18568;SDS011;14780;48.316;-1.050;2023-05-10T06:53:10;5.55;;;2.08;;
18568;SDS011;14780;48.316;-1.050;2023-05-10T06:55:55;6.15;;;2.53;;
18568;SDS011;14780;48.316;-1.050;2023-05-10T06:58:40;3.72;;;2.15;;
18568;SDS011;14780;48.316;-1.050;2023-05-10T07:01:24;5.15;;;2.35;;
18568;SDS011;14780;48.316;-1.050;2023-05-10T07:04:09;4.03;;;2.28;;
18568;SDS011;14780;48.316;-1.050;2023-05-10T07:06:54;7.50;;;2.70;;
18568;SDS011;14780;48.316;-1.050;2023-05-10T07:09:38;4.82;;;2.10;;
18568;SDS011;14780;48.316;-1.050;2023-05-10T07:12:24;10.30;;;2.47;;
18568;SDS011;14780;48.316;-1.050;2023-05-10T07:15:08;3.75;;;2.00;;
18568;SDS011;14780;48.316;-1.050;2023-05-10T07:17:53;6.10;;;2.22;;
18568;SDS011;14780;48.316;-1.050;2023-05-10T07:20:38;8.90;;;2.75;;
18568;SDS011;14780;48.316;-1.050;2023-05-10T07:23:23;8.05;;;2.67;;
18568;SDS011;14780;48.316;-1.050;2023-05-10T07:26:08;7.57;;;2.33;;
18568;SDS011;14780;48.316;-1.050;2023-05-10T07:28:53;3.45;;;2.15;;
18568;SDS011;14780;48.316;-1.050;2023-05-10T07:31:39;4.20;;;2.15;;
18568;SDS011;14780;48.316;-1.050;2023-05-10T07:34:25;6.70;;;2.80;;
18568;SDS011;14780;48.316;-1.050;2023-05-10T07:37:10;7.68;;;3.42;;
18568;SDS011;14780;48.316;-1.050;2023-05-10T07:39:55;8.77;;;3.67;;
18568;SDS011;14780;48.316;-1.050;2023-05-10T07:42:40;7.22;;;3.28;;
18568;SDS011;14780;48.316;-1.050;2023-05-10T07:45:24;10.98;;;4.00;;
18568;SDS011;14780;48.316;-1.050;2023-05-10T07:48:09;6.53;;;3.10;;
18568;SDS011;14780;48.316;-1.050;2023-05-10T07:50:53;9.13;;;3.05;;
18568;SDS011;14780;48.316;-1.050;2023-05-10T07:53:38;9.43;;;3.63;;
18568;SDS011;14780;48.316;-1.050;2023-05-10T07:56:27;6.80;;;2.63;;
18568;SDS011;14780;48.316;-1.050;2023-05-10T07:59:16;8.48;;;3.10;;
18568;SDS011;14780;48.316;-1.050;2023-05-10T08:02:01;4.43;;;2.28;;
18568;SDS011;14780;48.316;-1.050;2023-05-10T08:04:46;10.63;;;3.35;;
18568;SDS011;14780;48.316;-1.050;2023-05-10T08:07:31;17.08;;;3.38;;
18568;SDS011;14780;48.316;-1.050;2023-05-10T08:10:16;5.15;;;2.90;;
18568;SDS011;14780;48.316;-1.050;2023-05-10T08:13:01;7.93;;;3.15;;
18568;SDS011;14780;48.316;-1.050;2023-05-10T08:15:45;6.53;;;2.85;;
18568;SDS011;14780;48.316;-1.050;2023-05-10T08:18:30;7.18;;;2.85;;
18568;SDS011;14780;48.316;-1.050;2023-05-10T08:21:15;9.45;;;3.05;;
18568;SDS011;14780;48.316;-1.050;2023-05-10T08:24:00;6.95;;;2.88;;
18568;SDS011;14780;48.316;-1.050;2023-05-10T08:26:45;5.35;;;2.45;;
18568;SDS011;14780;48.316;-1.050;2023-05-10T08:29:31;9.50;;;2.70;;
18568;SDS011;14780;48.316;-1.050;2023-05-10T08:32:16;7.97;;;3.33;;
18568;SDS011;14780;48.316;-1.050;2023-05-10T08:35:01;6.38;;;2.72;;
18568;SDS011;14780;48.316;-1.050;2023-05-10T08:37:46;5.82;;;2.42;;
18568;SDS011;14780;48.316;-1.050;2023-05-10T08:40:30;10.52;;;2.95;;
18568;SDS011;14780;48.316;-1.050;2023-05-10T08:43:16;5.25;;;2.33;;
18568;SDS011;14780;48.316;-1.050;2023-05-10T08:46:01;6.72;;;2.70;;
18568;SDS011;14780;48.316;-1.050;2023-05-10T08:48:49;5.07;;;2.50;;
18568;SDS011;14780;48.316;-1.050;2023-05-10T08:51:35;6.38;;;2.80;;
18568;SDS011;14780;48.316;-1.050;2023-05-10T08:54:24;4.32;;;2.20;;
18568;SDS011;14780;48.316;-1.050;2023-05-10T08:57:09;5.97;;;2.20;;
18568;SDS011;14780;48.316;-1.050;2023-05-10T08:59:55;4.88;;;2.10;;
18568;SDS011;14780;48.316;-1.050;2023-05-10T09:02:39;4.88;;;2.20;;
18568;SDS011;14780;48.316;-1.050;2023-05-10T09:05:25;3.67;;;2.33;;
18568;SDS011;14780;48.316;-1.050;2023-05-10T09:08:10;6.57;;;3.20;;
18568;SDS011;14780;48.316;-1.050;2023-05-10T09:10:56;4.53;;;2.60;;
18568;SDS011;14780;48.316;-1.050;2023-05-10T09:13:41;6.88;;;2.63;;
18568;SDS011;14780;48.316;-1.050;2023-05-10T09:16:27;5.75;;;2.83;;
18568;SDS011;14780;48.316;-1.050;2023-05-10T09:19:12;7.72;;;2.45;;
18568;SDS011;14780;48.316;-1.050;2023-05-10T09:21:57;11.10;;;2.90;;
18568;SDS011;14780;48.316;-1.050;2023-05-10T09:24:43;5.50;;;2.78;;
18568;SDS011;14780;48.316;-1.050;2023-05-10T09:27:28;5.07;;;2.15;;
18568;SDS011;14780;48.316;-1.050;2023-05-10T09:30:17;11.25;;;3.25;;
18568;SDS011;14780;48.316;-1.050;2023-05-10T09:33:10;11.13;;;2.65;;
18568;SDS011;14780;48.316;-1.050;2023-05-10T09:35:54;9.52;;;3.15;;
18568;SDS011;14780;48.316;-1.050;2023-05-10T09:38:50;6.20;;;2.38;;
18568;SDS011;14780;48.316;-1.050;2023-05-10T09:41:36;7.25;;;2.80;;
18568;SDS011;14780;48.316;-1.050;2023-05-10T09:44:20;8.18;;;3.08;;
18568;SDS011;14780;48.316;-1.050;2023-05-10T09:47:05;6.65;;;2.55;;
18568;SDS011;14780;48.316;-1.050;2023-05-10T09:49:50;8.02;;;2.90;;
18568;SDS011;14780;48.316;-1.050;2023-05-10T09:55:45;82.13;;;28.08;;
18568;SDS011;14780;48.316;-1.050;2023-05-10T09:58:30;243.95;;;61.75;;
18568;SDS011;14780;48.316;-1.050;2023-05-10T10:01:20;291.92;;;83.15;;
18568;SDS011;14780;48.316;-1.050;2023-05-10T10:04:05;258.63;;;76.65;;
18568;SDS011;14780;48.316;-1.050;2023-05-10T10:06:59;242.55;;;68.35;;
18568;SDS011;14780;48.316;-1.050;2023-05-10T10:09:46;211.73;;;61.80;;
18568;SDS011;14780;48.316;-1.050;2023-05-10T10:12:31;226.00;;;59.78;;
18568;SDS011;14780;48.316;-1.050;2023-05-10T10:15:16;194.63;;;57.10;;
18568;SDS011;14780;48.316;-1.050;2023-05-10T10:18:01;160.55;;;49.75;;
18568;SDS011;14780;48.316;-1.050;2023-05-10T10:20:47;161.32;;;49.92;;
18568;SDS011;14780;48.316;-1.050;2023-05-10T10:23:32;153.10;;;48.53;;
18568;SDS011;14780;48.316;-1.050;2023-05-10T10:26:17;143.77;;;47.63;;
18568;SDS011;14780;48.316;-1.050;2023-05-10T10:35:02;131.00;;;42.38;;
18568;SDS011;14780;48.316;-1.050;2023-05-10T10:37:47;134.52;;;41.33;;
18568;SDS011;14780;48.316;-1.050;2023-05-10T10:40:34;116.43;;;36.30;;
18568;SDS011;14780;48.316;-1.050;2023-05-10T10:43:26;109.25;;;35.55;;
18568;SDS011;14780;48.316;-1.050;2023-05-10T10:46:15;87.82;;;31.92;;
18568;SDS011;14780;48.316;-1.050;2023-05-10T10:49:09;98.45;;;32.50;;
18568;SDS011;14780;48.316;-1.050;2023-05-10T10:55:00;77.18;;;25.92;;
18568;SDS011;14780;48.316;-1.050;2023-05-10T10:57:54;75.43;;;24.35;;
18568;SDS011;14780;48.316;-1.050;2023-05-10T11:00:48;83.75;;;25.38;;
18568;SDS011;14780;48.316;-1.050;2023-05-10T11:03:32;61.97;;;23.35;;
18568;SDS011;14780;48.316;-1.050;2023-05-10T11:06:17;83.65;;;26.02;;
18568;SDS011;14780;48.316;-1.050;2023-05-10T11:09:14;72.45;;;23.95;;
18568;SDS011;14780;48.316;-1.050;2023-05-10T11:12:00;57.05;;;21.63;;
18568;SDS011;14780;48.316;-1.050;2023-05-10T11:14:51;64.82;;;22.02;;
18568;SDS011;14780;48.316;-1.050;2023-05-10T11:17:40;61.55;;;22.10;;
18568;SDS011;14780;48.316;-1.050;2023-05-10T11:20:27;58.85;;;20.73;;
18568;SDS011;14780;48.316;-1.050;2023-05-10T11:23:16;56.13;;;22.60;;
18568;SDS011;14780;48.316;-1.050;2023-05-10T11:26:02;58.60;;;21.00;;
18568;SDS011;14780;48.316;-1.050;2023-05-10T11:28:53;59.80;;;21.58;;
18568;SDS011;14780;48.316;-1.050;2023-05-10T11:31:45;51.20;;;18.73;;
18568;SDS011;14780;48.316;-1.050;2023-05-10T11:34:31;53.10;;;20.83;;
18568;SDS011;14780;48.316;-1.050;2023-05-10T11:37:19;45.72;;;19.80;;
18568;SDS011;14780;48.316;-1.050;2023-05-10T11:40:04;52.30;;;19.15;;
18568;SDS011;14780;48.316;-1.050;2023-05-10T11:42:50;64.43;;;19.92;;
18568;SDS011;14780;48.316;-1.050;2023-05-10T11:45:35;44.70;;;18.40;;
18568;SDS011;14780;48.316;-1.050;2023-05-10T11:48:21;49.67;;;16.85;;
18568;SDS011;14780;48.316;-1.050;2023-05-10T11:51:07;38.40;;;15.93;;
18568;SDS011;14780;48.316;-1.050;2023-05-10T11:53:55;42.00;;;15.88;;
18568;SDS011;14780;48.316;-1.050;2023-05-10T11:56:40;35.45;;;13.88;;
18568;SDS011;14780;48.316;-1.050;2023-05-10T11:59:25;42.67;;;14.80;;
18568;SDS011;14780;48.316;-1.050;2023-05-10T12:02:09;37.67;;;14.30;;
18568;SDS011;14780;48.316;-1.050;2023-05-10T12:04:55;36.20;;;14.05;;
18568;SDS011;14780;48.316;-1.050;2023-05-10T12:07:40;29.08;;;12.07;;
18568;SDS011;14780;48.316;-1.050;2023-05-10T12:10:25;32.72;;;13.70;;
18568;SDS011;14780;48.316;-1.050;2023-05-10T12:13:11;41.30;;;13.40;;
18568;SDS011;14780;48.316;-1.050;2023-05-10T12:15:59;34.80;;;12.73;;
18568;SDS011;14780;48.316;-1.050;2023-05-10T12:18:56;27.02;;;12.40;;
18568;SDS011;14780;48.316;-1.050;2023-05-10T12:21:42;33.42;;;12.57;;
18568;SDS011;14780;48.316;-1.050;2023-05-10T12:24:28;36.60;;;13.20;;
18568;SDS011;14780;48.316;-1.050;2023-05-10T12:27:13;27.15;;;11.85;;
18568;SDS011;14780;48.316;-1.050;2023-05-10T12:29:59;26.23;;;11.07;;
18568;SDS011;14780;48.316;-1.050;2023-05-10T12:32:43;27.88;;;11.68;;
18568;SDS011;14780;48.316;-1.050;2023-05-10T12:35:31;27.55;;;11.50;;
18568;SDS011;14780;48.316;-1.050;2023-05-10T12:38:34;22.80;;;10.27;;
18568;SDS011;14780;48.316;-1.050;2023-05-10T12:41:21;25.25;;;10.73;;
18568;SDS011;14780;48.316;-1.050;2023-05-10T12:44:06;31.33;;;10.40;;
18568;SDS011;14780;48.316;-1.050;2023-05-10T12:46:51;28.67;;;10.07;;
18568;SDS011;14780;48.316;-1.050;2023-05-10T12:49:39;26.05;;;9.50;;
18568;SDS011;14780;48.316;-1.050;2023-05-10T12:52:24;24.88;;;10.02;;
18568;SDS011;14780;48.316;-1.050;2023-05-10T12:55:09;23.02;;;9.20;;
18568;SDS011;14780;48.316;-1.050;2023-05-10T12:57:55;26.38;;;10.40;;
18568;SDS011;14780;48.316;-1.050;2023-05-10T13:00:40;23.77;;;9.88;;
18568;SDS011;14780;48.316;-1.050;2023-05-10T13:03:24;25.10;;;10.02;;
18568;SDS011;14780;48.316;-1.050;2023-05-10T13:06:09;18.15;;;8.95;;
18568;SDS011;14780;48.316;-1.050;2023-05-10T13:08:54;23.88;;;9.63;;
18568;SDS011;14780;48.316;-1.050;2023-05-10T13:11:38;18.50;;;8.73;;
18568;SDS011;14780;48.316;-1.050;2023-05-10T13:14:24;24.42;;;9.45;;
18568;SDS011;14780;48.316;-1.050;2023-05-10T13:17:08;17.98;;;8.73;;
18568;SDS011;14780;48.316;-1.050;2023-05-10T13:19:54;20.17;;;9.02;;
18568;SDS011;14780;48.316;-1.050;2023-05-10T13:22:38;21.80;;;9.48;;
18568;SDS011;14780;48.316;-1.050;2023-05-10T13:25:23;20.65;;;8.38;;
18568;SDS011;14780;48.316;-1.050;2023-05-10T13:28:08;23.05;;;9.20;;
18568;SDS011;14780;48.316;-1.050;2023-05-10T13:30:53;23.40;;;8.95;;
18568;SDS011;14780;48.316;-1.050;2023-05-10T13:33:37;18.80;;;8.75;;
18568;SDS011;14780;48.316;-1.050;2023-05-10T13:36:22;18.48;;;8.23;;
18568;SDS011;14780;48.316;-1.050;2023-05-10T13:39:06;19.80;;;8.55;;
18568;SDS011;14780;48.316;-1.050;2023-05-10T13:41:51;18.25;;;7.57;;
18568;SDS011;14780;48.316;-1.050;2023-05-10T13:44:36;16.75;;;7.75;;
18568;SDS011;14780;48.316;-1.050;2023-05-10T13:47:22;15.15;;;7.55;;
18568;SDS011;14780;48.316;-1.050;2023-05-10T13:50:06;17.52;;;7.45;;
18568;SDS011;14780;48.316;-1.050;2023-05-10T13:52:51;17.60;;;7.28;;
18568;SDS011;14780;48.316;-1.050;2023-05-10T13:55:36;23.95;;;8.13;;
18568;SDS011;14780;48.316;-1.050;2023-05-10T13:58:21;18.52;;;7.80;;
18568;SDS011;14780;48.316;-1.050;2023-05-10T14:01:07;16.38;;;7.57;;
18568;SDS011;14780;48.316;-1.050;2023-05-10T14:03:52;14.90;;;7.32;;
18568;SDS011;14780;48.316;-1.050;2023-05-10T14:06:36;15.52;;;7.18;;
18568;SDS011;14780;48.316;-1.050;2023-05-10T14:09:21;15.35;;;6.90;;
18568;SDS011;14780;48.316;-1.050;2023-05-10T14:12:06;13.68;;;6.63;;
18568;SDS011;14780;48.316;-1.050;2023-05-10T14:14:51;14.40;;;7.00;;
18568;SDS011;14780;48.316;-1.050;2023-05-10T14:17:36;12.45;;;5.95;;
18568;SDS011;14780;48.316;-1.050;2023-05-10T14:20:21;12.45;;;6.25;;
18568;SDS011;14780;48.316;-1.050;2023-05-10T14:23:05;14.25;;;6.00;;
18568;SDS011;14780;48.316;-1.050;2023-05-10T14:25:54;13.25;;;6.00;;
18568;SDS011;14780;48.316;-1.050;2023-05-10T14:28:39;11.23;;;5.75;;
18568;SDS011;14780;48.316;-1.050;2023-05-10T14:31:24;17.23;;;7.13;;
18568;SDS011;14780;48.316;-1.050;2023-05-10T14:34:09;12.75;;;6.50;;
18568;SDS011;14780;48.316;-1.050;2023-05-10T14:36:53;11.80;;;6.10;;
18568;SDS011;14780;48.316;-1.050;2023-05-10T14:39:38;14.68;;;6.53;;
18568;SDS011;14780;48.316;-1.050;2023-05-10T14:42:24;13.55;;;6.10;;
18568;SDS011;14780;48.316;-1.050;2023-05-10T14:45:09;14.55;;;5.05;;
18568;SDS011;14780;48.316;-1.050;2023-05-10T14:47:54;12.75;;;5.38;;
18568;SDS011;14780;48.316;-1.050;2023-05-10T14:50:39;14.82;;;6.03;;
18568;SDS011;14780;48.316;-1.050;2023-05-10T14:53:24;11.80;;;6.05;;
18568;SDS011;14780;48.316;-1.050;2023-05-10T14:56:09;13.25;;;5.45;;
18568;SDS011;14780;48.316;-1.050;2023-05-10T14:58:53;9.45;;;4.88;;
18568;SDS011;14780;48.316;-1.050;2023-05-10T15:01:38;10.50;;;4.70;;
18568;SDS011;14780;48.316;-1.050;2023-05-10T15:04:25;11.48;;;4.63;;
18568;SDS011;14780;48.316;-1.050;2023-05-10T15:07:10;10.88;;;4.63;;
18568;SDS011;14780;48.316;-1.050;2023-05-10T15:09:58;10.48;;;4.75;;
18568;SDS011;14780;48.316;-1.050;2023-05-10T15:12:42;10.10;;;3.40;;
18568;SDS011;14780;48.316;-1.050;2023-05-10T15:15:27;8.43;;;3.58;;
18568;SDS011;14780;48.316;-1.050;2023-05-10T15:18:12;7.03;;;2.92;;
18568;SDS011;14780;48.316;-1.050;2023-05-10T15:20:56;7.70;;;3.35;;
18568;SDS011;14780;48.316;-1.050;2023-05-10T15:23:41;5.82;;;2.42;;
18568;SDS011;14780;48.316;-1.050;2023-05-10T15:26:26;6.07;;;3.10;;
18568;SDS011;14780;48.316;-1.050;2023-05-10T15:29:10;9.30;;;3.30;;
18568;SDS011;14780;48.316;-1.050;2023-05-10T15:31:55;6.38;;;2.97;;
18568;SDS011;14780;48.316;-1.050;2023-05-10T15:34:40;6.35;;;3.03;;
18568;SDS011;14780;48.316;-1.050;2023-05-10T15:37:25;7.55;;;3.08;;
18568;SDS011;14780;48.316;-1.050;2023-05-10T15:40:10;7.38;;;3.22;;
18568;SDS011;14780;48.316;-1.050;2023-05-10T15:42:55;7.60;;;3.15;;
18568;SDS011;14780;48.316;-1.050;2023-05-10T15:45:40;9.60;;;3.17;;
18568;SDS011;14780;48.316;-1.050;2023-05-10T15:48:25;5.70;;;2.80;;
18568;SDS011;14780;48.316;-1.050;2023-05-10T15:51:09;8.75;;;3.33;;
18568;SDS011;14780;48.316;-1.050;2023-05-10T15:53:55;5.88;;;3.13;;
18568;SDS011;14780;48.316;-1.050;2023-05-10T15:56:39;8.60;;;3.72;;
18568;SDS011;14780;48.316;-1.050;2023-05-10T15:59:24;9.98;;;4.22;;
18568;SDS011;14780;48.316;-1.050;2023-05-10T16:02:09;7.78;;;3.40;;
18568;SDS011;14780;48.316;-1.050;2023-05-10T16:04:53;7.70;;;3.30;;
18568;SDS011;14780;48.316;-1.050;2023-05-10T16:07:38;7.35;;;3.22;;
18568;SDS011;14780;48.316;-1.050;2023-05-10T16:10:24;5.18;;;2.40;;
18568;SDS011;14780;48.316;-1.050;2023-05-10T16:13:09;5.70;;;2.70;;
18568;SDS011;14780;48.316;-1.050;2023-05-10T16:15:55;7.35;;;3.08;;
18568;SDS011;14780;48.316;-1.050;2023-05-10T16:18:42;8.02;;;3.00;;
18568;SDS011;14780;48.316;-1.050;2023-05-10T16:21:27;4.72;;;2.40;;
18568;SDS011;14780;48.316;-1.050;2023-05-10T16:24:16;4.90;;;3.20;;
18568;SDS011;14780;48.316;-1.050;2023-05-10T16:27:01;6.22;;;2.67;;
18568;SDS011;14780;48.316;-1.050;2023-05-10T16:29:46;8.20;;;2.92;;
18568;SDS011;14780;48.316;-1.050;2023-05-10T16:32:30;9.85;;;2.67;;
18568;SDS011;14780;48.316;-1.050;2023-05-10T16:49:36;8.73;;;3.33;;
18568;SDS011;14780;48.316;-1.050;2023-05-10T16:52:21;15.20;;;3.40;;
18568;SDS011;14780;48.316;-1.050;2023-05-10T16:55:06;9.57;;;3.55;;
18568;SDS011;14780;48.316;-1.050;2023-05-10T16:57:51;13.35;;;3.33;;